Welkom

[Source: ADDS]
METAR
EBBR 211920Z 14008KT 9000 NSC 04/02 Q1004 NOSIG =
EBBR 211710Z 2118/2224 14006KT CAVOK BECMG 2201/2203 SCT006 BKN011 PROB30 TEMPO 2203/2205 4000 RA SHRA BKN006 BECMG 2207/2209 BKN017
TAF
EBBR 211710Z 2118/2224 14006KT CAVOK BECMG 2201/2203 SCT006 BKN011 PROB30 TEMPO 2203/2205 4000 RA SHRA BKN006 BECMG 2207/2209 BKN017 =

Visweer Vlissingen

StormCell is een non profit organisatie zonder oogmerk tot sensatie